sensor_id;sensor_type;location;lat;lon;timestamp;P1;durP1;ratioP1;P2;durP2;ratioP2
4305;SDS011;2166;49.926;8.608;2022-12-07T00:01:44;20.90;;;13.13;;
4305;SDS011;2166;49.926;8.608;2022-12-07T00:04:14;23.63;;;12.85;;
4305;SDS011;2166;49.926;8.608;2022-12-07T00:06:45;22.27;;;13.65;;
4305;SDS011;2166;49.926;8.608;2022-12-07T00:09:18;20.45;;;12.45;;
4305;SDS011;2166;49.926;8.608;2022-12-07T00:11:47;22.60;;;13.38;;
4305;SDS011;2166;49.926;8.608;2022-12-07T00:14:16;20.60;;;13.68;;
4305;SDS011;2166;49.926;8.608;2022-12-07T00:16:45;21.85;;;12.15;;
4305;SDS011;2166;49.926;8.608;2022-12-07T00:19:17;21.50;;;13.20;;
4305;SDS011;2166;49.926;8.608;2022-12-07T00:21:46;18.00;;;11.65;;
4305;SDS011;2166;49.926;8.608;2022-12-07T00:24:14;20.38;;;13.55;;
4305;SDS011;2166;49.926;8.608;2022-12-07T00:26:43;22.02;;;13.07;;
4305;SDS011;2166;49.926;8.608;2022-12-07T00:29:12;21.55;;;13.52;;
4305;SDS011;2166;49.926;8.608;2022-12-07T00:31:43;21.83;;;13.90;;
4305;SDS011;2166;49.926;8.608;2022-12-07T00:34:12;19.95;;;12.15;;
4305;SDS011;2166;49.926;8.608;2022-12-07T00:36:42;18.77;;;12.90;;
4305;SDS011;2166;49.926;8.608;2022-12-07T00:39:12;20.60;;;12.85;;
4305;SDS011;2166;49.926;8.608;2022-12-07T00:41:40;19.80;;;12.73;;
4305;SDS011;2166;49.926;8.608;2022-12-07T00:44:08;20.45;;;13.15;;
4305;SDS011;2166;49.926;8.608;2022-12-07T00:46:36;21.25;;;13.68;;
4305;SDS011;2166;49.926;8.608;2022-12-07T00:49:04;20.90;;;13.85;;
4305;SDS011;2166;49.926;8.608;2022-12-07T00:51:34;22.25;;;13.05;;
4305;SDS011;2166;49.926;8.608;2022-12-07T00:54:02;23.55;;;13.10;;
4305;SDS011;2166;49.926;8.608;2022-12-07T00:56:32;20.05;;;12.65;;
4305;SDS011;2166;49.926;8.608;2022-12-07T00:59:01;22.33;;;13.05;;
4305;SDS011;2166;49.926;8.608;2022-12-07T01:01:31;25.17;;;13.55;;
4305;SDS011;2166;49.926;8.608;2022-12-07T01:04:05;20.25;;;13.77;;
4305;SDS011;2166;49.926;8.608;2022-12-07T01:06:36;20.20;;;12.85;;
4305;SDS011;2166;49.926;8.608;2022-12-07T01:09:04;22.92;;;12.88;;
4305;SDS011;2166;49.926;8.608;2022-12-07T01:11:33;22.80;;;13.05;;
4305;SDS011;2166;49.926;8.608;2022-12-07T01:14:02;22.88;;;13.18;;
4305;SDS011;2166;49.926;8.608;2022-12-07T01:16:31;19.65;;;12.32;;
4305;SDS011;2166;49.926;8.608;2022-12-07T01:19:00;19.95;;;12.43;;
4305;SDS011;2166;49.926;8.608;2022-12-07T01:21:31;21.05;;;12.45;;
4305;SDS011;2166;49.926;8.608;2022-12-07T01:24:04;25.88;;;13.40;;
4305;SDS011;2166;49.926;8.608;2022-12-07T01:26:35;18.42;;;12.10;;
4305;SDS011;2166;49.926;8.608;2022-12-07T01:29:04;18.30;;;11.68;;
4305;SDS011;2166;49.926;8.608;2022-12-07T01:31:33;20.35;;;12.55;;
4305;SDS011;2166;49.926;8.608;2022-12-07T01:34:01;21.17;;;13.25;;
4305;SDS011;2166;49.926;8.608;2022-12-07T01:36:32;20.88;;;12.50;;
4305;SDS011;2166;49.926;8.608;2022-12-07T01:39:03;20.33;;;12.57;;
4305;SDS011;2166;49.926;8.608;2022-12-07T01:41:36;20.95;;;12.88;;
4305;SDS011;2166;49.926;8.608;2022-12-07T01:44:08;20.80;;;12.32;;
4305;SDS011;2166;49.926;8.608;2022-12-07T01:46:40;19.05;;;12.00;;
4305;SDS011;2166;49.926;8.608;2022-12-07T01:49:13;21.98;;;12.88;;
4305;SDS011;2166;49.926;8.608;2022-12-07T01:51:45;26.95;;;13.25;;
4305;SDS011;2166;49.926;8.608;2022-12-07T01:54:14;19.50;;;12.20;;
4305;SDS011;2166;49.926;8.608;2022-12-07T01:56:46;21.65;;;13.13;;
4305;SDS011;2166;49.926;8.608;2022-12-07T01:59:18;23.58;;;14.65;;
4305;SDS011;2166;49.926;8.608;2022-12-07T02:01:51;20.90;;;13.57;;
4305;SDS011;2166;49.926;8.608;2022-12-07T02:04:20;20.23;;;12.82;;
4305;SDS011;2166;49.926;8.608;2022-12-07T02:06:49;18.58;;;11.48;;
4305;SDS011;2166;49.926;8.608;2022-12-07T02:09:18;22.10;;;13.52;;
4305;SDS011;2166;49.926;8.608;2022-12-07T02:11:48;21.65;;;12.88;;
4305;SDS011;2166;49.926;8.608;2022-12-07T02:14:16;26.50;;;13.93;;
4305;SDS011;2166;49.926;8.608;2022-12-07T02:16:47;24.67;;;13.75;;
4305;SDS011;2166;49.926;8.608;2022-12-07T02:22:34;21.50;;;13.38;;
4305;SDS011;2166;49.926;8.608;2022-12-07T02:25:22;23.67;;;13.55;;
4305;SDS011;2166;49.926;8.608;2022-12-07T02:28:01;19.35;;;12.98;;
4305;SDS011;2166;49.926;8.608;2022-12-07T02:30:35;20.08;;;13.02;;
4305;SDS011;2166;49.926;8.608;2022-12-07T02:33:11;22.77;;;13.73;;
4305;SDS011;2166;49.926;8.608;2022-12-07T02:35:44;21.85;;;13.13;;
4305;SDS011;2166;49.926;8.608;2022-12-07T02:38:21;22.30;;;13.68;;
4305;SDS011;2166;49.926;8.608;2022-12-07T02:40:57;21.45;;;12.80;;
4305;SDS011;2166;49.926;8.608;2022-12-07T02:43:34;20.85;;;12.15;;
4305;SDS011;2166;49.926;8.608;2022-12-07T02:46:08;18.88;;;11.75;;
4305;SDS011;2166;49.926;8.608;2022-12-07T02:48:39;21.83;;;12.18;;
4305;SDS011;2166;49.926;8.608;2022-12-07T02:51:11;20.08;;;12.38;;
4305;SDS011;2166;49.926;8.608;2022-12-07T02:53:39;19.23;;;11.95;;
4305;SDS011;2166;49.926;8.608;2022-12-07T02:56:10;18.23;;;11.30;;
4305;SDS011;2166;49.926;8.608;2022-12-07T02:59:02;18.38;;;11.32;;
4305;SDS011;2166;49.926;8.608;2022-12-07T03:01:41;18.90;;;11.90;;
4305;SDS011;2166;49.926;8.608;2022-12-07T03:04:22;21.42;;;12.10;;
4305;SDS011;2166;49.926;8.608;2022-12-07T03:07:02;17.38;;;12.18;;
4305;SDS011;2166;49.926;8.608;2022-12-07T03:09:37;21.55;;;13.13;;
4305;SDS011;2166;49.926;8.608;2022-12-07T03:12:14;21.65;;;13.52;;
4305;SDS011;2166;49.926;8.608;2022-12-07T03:14:47;21.98;;;12.88;;
4305;SDS011;2166;49.926;8.608;2022-12-07T03:17:22;20.27;;;12.75;;
4305;SDS011;2166;49.926;8.608;2022-12-07T03:19:54;23.38;;;13.10;;
4305;SDS011;2166;49.926;8.608;2022-12-07T03:22:27;23.30;;;12.70;;
4305;SDS011;2166;49.926;8.608;2022-12-07T03:24:59;18.40;;;11.50;;
4305;SDS011;2166;49.926;8.608;2022-12-07T03:27:33;16.48;;;10.52;;
4305;SDS011;2166;49.926;8.608;2022-12-07T03:30:06;18.10;;;11.10;;
4305;SDS011;2166;49.926;8.608;2022-12-07T03:32:39;18.40;;;11.98;;
4305;SDS011;2166;49.926;8.608;2022-12-07T03:35:11;21.60;;;11.73;;
4305;SDS011;2166;49.926;8.608;2022-12-07T03:37:44;18.27;;;11.30;;
4305;SDS011;2166;49.926;8.608;2022-12-07T03:40:20;18.35;;;11.25;;
4305;SDS011;2166;49.926;8.608;2022-12-07T03:42:52;23.75;;;13.68;;
4305;SDS011;2166;49.926;8.608;2022-12-07T03:45:23;21.02;;;12.55;;
4305;SDS011;2166;49.926;8.608;2022-12-07T03:48:02;20.85;;;12.93;;
4305;SDS011;2166;49.926;8.608;2022-12-07T03:50:37;23.15;;;13.88;;
4305;SDS011;2166;49.926;8.608;2022-12-07T03:53:11;20.85;;;12.60;;
4305;SDS011;2166;49.926;8.608;2022-12-07T03:55:44;20.75;;;12.43;;
4305;SDS011;2166;49.926;8.608;2022-12-07T03:58:20;23.10;;;12.68;;
4305;SDS011;2166;49.926;8.608;2022-12-07T04:00:50;19.15;;;11.73;;
4305;SDS011;2166;49.926;8.608;2022-12-07T04:03:20;23.90;;;14.02;;
4305;SDS011;2166;49.926;8.608;2022-12-07T04:05:48;27.67;;;14.63;;
4305;SDS011;2166;49.926;8.608;2022-12-07T04:08:16;23.13;;;14.68;;
4305;SDS011;2166;49.926;8.608;2022-12-07T04:10:44;22.48;;;13.57;;
4305;SDS011;2166;49.926;8.608;2022-12-07T04:13:12;25.10;;;13.50;;
4305;SDS011;2166;49.926;8.608;2022-12-07T04:15:40;27.27;;;15.32;;
4305;SDS011;2166;49.926;8.608;2022-12-07T04:18:08;21.63;;;12.77;;
4305;SDS011;2166;49.926;8.608;2022-12-07T04:20:38;25.33;;;14.13;;
4305;SDS011;2166;49.926;8.608;2022-12-07T04:23:06;26.13;;;13.23;;
4305;SDS011;2166;49.926;8.608;2022-12-07T04:25:34;19.05;;;13.02;;
4305;SDS011;2166;49.926;8.608;2022-12-07T04:28:02;23.92;;;13.50;;
4305;SDS011;2166;49.926;8.608;2022-12-07T04:30:31;22.10;;;13.38;;
4305;SDS011;2166;49.926;8.608;2022-12-07T04:33:00;22.50;;;13.23;;
4305;SDS011;2166;49.926;8.608;2022-12-07T04:35:28;23.83;;;12.77;;
4305;SDS011;2166;49.926;8.608;2022-12-07T04:37:57;21.58;;;12.60;;
4305;SDS011;2166;49.926;8.608;2022-12-07T04:40:25;20.75;;;11.98;;
4305;SDS011;2166;49.926;8.608;2022-12-07T04:42:54;21.92;;;12.60;;
4305;SDS011;2166;49.926;8.608;2022-12-07T04:45:22;19.98;;;12.13;;
4305;SDS011;2166;49.926;8.608;2022-12-07T04:47:51;19.90;;;11.15;;
4305;SDS011;2166;49.926;8.608;2022-12-07T04:50:21;17.02;;;10.57;;
4305;SDS011;2166;49.926;8.608;2022-12-07T04:52:49;19.17;;;11.75;;
4305;SDS011;2166;49.926;8.608;2022-12-07T04:55:18;17.30;;;10.43;;
4305;SDS011;2166;49.926;8.608;2022-12-07T04:57:46;19.88;;;11.52;;
4305;SDS011;2166;49.926;8.608;2022-12-07T05:00:16;19.33;;;11.85;;
4305;SDS011;2166;49.926;8.608;2022-12-07T05:02:45;19.73;;;12.05;;
4305;SDS011;2166;49.926;8.608;2022-12-07T05:05:13;22.98;;;12.35;;
4305;SDS011;2166;49.926;8.608;2022-12-07T05:07:41;18.95;;;10.52;;
4305;SDS011;2166;49.926;8.608;2022-12-07T05:10:09;20.77;;;10.73;;
4305;SDS011;2166;49.926;8.608;2022-12-07T05:12:39;17.95;;;10.23;;
4305;SDS011;2166;49.926;8.608;2022-12-07T05:15:07;20.20;;;11.50;;
4305;SDS011;2166;49.926;8.608;2022-12-07T05:17:36;21.17;;;11.77;;
4305;SDS011;2166;49.926;8.608;2022-12-07T05:20:05;22.85;;;12.57;;
4305;SDS011;2166;49.926;8.608;2022-12-07T05:22:34;19.30;;;12.25;;
4305;SDS011;2166;49.926;8.608;2022-12-07T05:25:03;17.35;;;11.38;;
4305;SDS011;2166;49.926;8.608;2022-12-07T05:27:36;19.25;;;11.70;;
4305;SDS011;2166;49.926;8.608;2022-12-07T05:30:06;20.48;;;11.75;;
4305;SDS011;2166;49.926;8.608;2022-12-07T05:32:35;19.20;;;11.05;;
4305;SDS011;2166;49.926;8.608;2022-12-07T05:35:03;20.02;;;11.52;;
4305;SDS011;2166;49.926;8.608;2022-12-07T05:37:32;17.08;;;11.50;;
4305;SDS011;2166;49.926;8.608;2022-12-07T05:40:00;19.00;;;11.82;;
4305;SDS011;2166;49.926;8.608;2022-12-07T05:42:29;18.33;;;11.48;;
4305;SDS011;2166;49.926;8.608;2022-12-07T05:44:58;17.15;;;10.52;;
4305;SDS011;2166;49.926;8.608;2022-12-07T05:47:26;15.63;;;10.10;;
4305;SDS011;2166;49.926;8.608;2022-12-07T05:49:54;16.65;;;10.65;;
4305;SDS011;2166;49.926;8.608;2022-12-07T05:52:22;16.40;;;10.35;;
4305;SDS011;2166;49.926;8.608;2022-12-07T05:54:50;17.70;;;9.52;;
4305;SDS011;2166;49.926;8.608;2022-12-07T05:57:18;17.45;;;10.82;;
4305;SDS011;2166;49.926;8.608;2022-12-07T05:59:47;15.65;;;9.98;;
4305;SDS011;2166;49.926;8.608;2022-12-07T06:02:16;17.88;;;9.73;;
4305;SDS011;2166;49.926;8.608;2022-12-07T06:04:45;17.13;;;10.68;;
4305;SDS011;2166;49.926;8.608;2022-12-07T06:07:15;16.80;;;10.48;;
4305;SDS011;2166;49.926;8.608;2022-12-07T06:09:43;19.58;;;11.43;;
4305;SDS011;2166;49.926;8.608;2022-12-07T06:12:11;17.60;;;10.70;;
4305;SDS011;2166;49.926;8.608;2022-12-07T06:14:58;17.75;;;10.82;;
4305;SDS011;2166;49.926;8.608;2022-12-07T06:17:28;14.93;;;10.55;;
4305;SDS011;2166;49.926;8.608;2022-12-07T06:19:56;18.30;;;11.10;;
4305;SDS011;2166;49.926;8.608;2022-12-07T06:22:25;18.83;;;11.25;;
4305;SDS011;2166;49.926;8.608;2022-12-07T06:24:53;17.25;;;10.40;;
4305;SDS011;2166;49.926;8.608;2022-12-07T06:27:23;15.07;;;10.07;;
4305;SDS011;2166;49.926;8.608;2022-12-07T06:29:52;18.77;;;10.63;;
4305;SDS011;2166;49.926;8.608;2022-12-07T06:32:20;16.35;;;10.65;;
4305;SDS011;2166;49.926;8.608;2022-12-07T06:34:53;20.10;;;10.73;;
4305;SDS011;2166;49.926;8.608;2022-12-07T06:37:22;15.35;;;10.13;;
4305;SDS011;2166;49.926;8.608;2022-12-07T06:39:50;14.25;;;9.77;;
4305;SDS011;2166;49.926;8.608;2022-12-07T06:42:18;13.98;;;10.15;;
4305;SDS011;2166;49.926;8.608;2022-12-07T06:44:46;14.27;;;9.43;;
4305;SDS011;2166;49.926;8.608;2022-12-07T06:47:15;15.40;;;9.98;;
4305;SDS011;2166;49.926;8.608;2022-12-07T06:50:05;19.95;;;11.82;;
4305;SDS011;2166;49.926;8.608;2022-12-07T06:52:34;18.95;;;10.02;;
4305;SDS011;2166;49.926;8.608;2022-12-07T06:55:03;18.95;;;10.35;;
4305;SDS011;2166;49.926;8.608;2022-12-07T06:57:31;19.27;;;9.80;;
4305;SDS011;2166;49.926;8.608;2022-12-07T06:59:59;16.95;;;9.80;;
4305;SDS011;2166;49.926;8.608;2022-12-07T07:02:29;17.63;;;9.50;;
4305;SDS011;2166;49.926;8.608;2022-12-07T07:04:57;17.25;;;10.27;;
4305;SDS011;2166;49.926;8.608;2022-12-07T07:07:26;16.38;;;10.60;;
4305;SDS011;2166;49.926;8.608;2022-12-07T07:09:55;15.93;;;10.30;;
4305;SDS011;2166;49.926;8.608;2022-12-07T07:12:23;15.32;;;9.13;;
4305;SDS011;2166;49.926;8.608;2022-12-07T07:14:51;15.70;;;10.77;;
4305;SDS011;2166;49.926;8.608;2022-12-07T07:17:19;18.38;;;11.80;;
4305;SDS011;2166;49.926;8.608;2022-12-07T07:19:47;14.45;;;10.90;;
4305;SDS011;2166;49.926;8.608;2022-12-07T07:22:15;15.18;;;10.65;;
4305;SDS011;2166;49.926;8.608;2022-12-07T07:24:45;17.88;;;11.82;;
4305;SDS011;2166;49.926;8.608;2022-12-07T07:27:13;18.23;;;10.95;;
4305;SDS011;2166;49.926;8.608;2022-12-07T07:29:41;18.75;;;11.20;;
4305;SDS011;2166;49.926;8.608;2022-12-07T07:32:09;17.83;;;10.98;;
4305;SDS011;2166;49.926;8.608;2022-12-07T07:34:39;15.50;;;9.63;;
4305;SDS011;2166;49.926;8.608;2022-12-07T07:37:07;18.20;;;10.70;;
4305;SDS011;2166;49.926;8.608;2022-12-07T07:39:37;17.95;;;10.88;;
4305;SDS011;2166;49.926;8.608;2022-12-07T07:42:07;17.38;;;11.55;;
4305;SDS011;2166;49.926;8.608;2022-12-07T07:44:35;17.27;;;11.65;;
4305;SDS011;2166;49.926;8.608;2022-12-07T07:47:04;17.25;;;11.25;;
4305;SDS011;2166;49.926;8.608;2022-12-07T07:49:32;17.40;;;10.95;;
4305;SDS011;2166;49.926;8.608;2022-12-07T07:52:01;20.02;;;10.45;;
4305;SDS011;2166;49.926;8.608;2022-12-07T07:54:29;21.70;;;10.98;;
4305;SDS011;2166;49.926;8.608;2022-12-07T07:56:57;19.45;;;10.90;;
4305;SDS011;2166;49.926;8.608;2022-12-07T07:59:27;17.98;;;10.98;;
4305;SDS011;2166;49.926;8.608;2022-12-07T08:01:55;17.00;;;11.32;;
4305;SDS011;2166;49.926;8.608;2022-12-07T08:04:27;17.65;;;10.95;;
4305;SDS011;2166;49.926;8.608;2022-12-07T08:06:56;16.67;;;10.20;;
4305;SDS011;2166;49.926;8.608;2022-12-07T08:09:24;16.67;;;10.85;;
4305;SDS011;2166;49.926;8.608;2022-12-07T08:11:52;14.85;;;10.18;;
4305;SDS011;2166;49.926;8.608;2022-12-07T08:14:20;18.20;;;11.93;;
4305;SDS011;2166;49.926;8.608;2022-12-07T08:16:51;21.95;;;12.18;;
4305;SDS011;2166;49.926;8.608;2022-12-07T08:19:20;18.00;;;11.02;;
4305;SDS011;2166;49.926;8.608;2022-12-07T08:21:48;22.75;;;11.35;;
4305;SDS011;2166;49.926;8.608;2022-12-07T08:24:16;21.23;;;11.43;;
4305;SDS011;2166;49.926;8.608;2022-12-07T08:26:45;19.17;;;11.85;;
4305;SDS011;2166;49.926;8.608;2022-12-07T08:29:13;16.20;;;10.90;;
4305;SDS011;2166;49.926;8.608;2022-12-07T08:31:41;17.80;;;11.02;;
4305;SDS011;2166;49.926;8.608;2022-12-07T08:34:11;19.08;;;11.88;;
4305;SDS011;2166;49.926;8.608;2022-12-07T08:36:40;18.45;;;11.45;;
4305;SDS011;2166;49.926;8.608;2022-12-07T08:39:08;17.83;;;12.60;;
4305;SDS011;2166;49.926;8.608;2022-12-07T08:41:57;17.67;;;11.73;;
4305;SDS011;2166;49.926;8.608;2022-12-07T08:44:25;17.65;;;11.73;;
4305;SDS011;2166;49.926;8.608;2022-12-07T08:46:53;20.23;;;12.07;;
4305;SDS011;2166;49.926;8.608;2022-12-07T08:49:27;16.85;;;11.68;;
4305;SDS011;2166;49.926;8.608;2022-12-07T08:52:00;21.58;;;13.43;;
4305;SDS011;2166;49.926;8.608;2022-12-07T08:54:31;17.20;;;11.32;;
4305;SDS011;2166;49.926;8.608;2022-12-07T08:57:02;14.90;;;10.20;;
4305;SDS011;2166;49.926;8.608;2022-12-07T08:59:32;21.13;;;12.32;;
4305;SDS011;2166;49.926;8.608;2022-12-07T09:02:02;16.15;;;10.60;;
4305;SDS011;2166;49.926;8.608;2022-12-07T09:04:32;13.38;;;9.63;;
4305;SDS011;2166;49.926;8.608;2022-12-07T09:07:00;16.02;;;10.45;;
4305;SDS011;2166;49.926;8.608;2022-12-07T09:09:29;13.90;;;9.95;;
4305;SDS011;2166;49.926;8.608;2022-12-07T09:11:57;13.27;;;8.70;;
4305;SDS011;2166;49.926;8.608;2022-12-07T09:14:26;12.18;;;9.07;;
4305;SDS011;2166;49.926;8.608;2022-12-07T09:16:54;14.35;;;8.02;;
4305;SDS011;2166;49.926;8.608;2022-12-07T09:19:22;16.58;;;9.02;;
4305;SDS011;2166;49.926;8.608;2022-12-07T09:21:52;13.02;;;7.78;;
4305;SDS011;2166;49.926;8.608;2022-12-07T09:24:20;12.10;;;9.15;;
4305;SDS011;2166;49.926;8.608;2022-12-07T09:26:48;9.40;;;6.38;;
4305;SDS011;2166;49.926;8.608;2022-12-07T09:29:17;10.43;;;7.55;;
4305;SDS011;2166;49.926;8.608;2022-12-07T09:31:45;13.60;;;7.72;;
4305;SDS011;2166;49.926;8.608;2022-12-07T09:34:18;11.25;;;7.90;;
4305;SDS011;2166;49.926;8.608;2022-12-07T09:36:48;14.07;;;9.50;;
4305;SDS011;2166;49.926;8.608;2022-12-07T09:39:17;13.35;;;9.40;;
4305;SDS011;2166;49.926;8.608;2022-12-07T09:41:46;14.20;;;8.95;;
4305;SDS011;2166;49.926;8.608;2022-12-07T09:44:14;16.75;;;9.75;;
4305;SDS011;2166;49.926;8.608;2022-12-07T09:46:49;15.85;;;11.15;;
4305;SDS011;2166;49.926;8.608;2022-12-07T09:49:20;12.75;;;10.00;;
4305;SDS011;2166;49.926;8.608;2022-12-07T09:51:59;17.83;;;10.18;;
4305;SDS011;2166;49.926;8.608;2022-12-07T09:54:30;12.43;;;8.88;;
4305;SDS011;2166;49.926;8.608;2022-12-07T09:57:01;13.98;;;10.05;;
4305;SDS011;2166;49.926;8.608;2022-12-07T09:59:29;14.13;;;9.40;;
4305;SDS011;2166;49.926;8.608;2022-12-07T10:02:17;13.07;;;8.85;;
4305;SDS011;2166;49.926;8.608;2022-12-07T10:04:55;14.98;;;9.40;;
4305;SDS011;2166;49.926;8.608;2022-12-07T10:07:26;13.52;;;9.68;;
4305;SDS011;2166;49.926;8.608;2022-12-07T10:09:56;15.02;;;9.35;;
4305;SDS011;2166;49.926;8.608;2022-12-07T10:12:24;12.80;;;8.10;;
4305;SDS011;2166;49.926;8.608;2022-12-07T10:14:53;13.75;;;9.48;;
4305;SDS011;2166;49.926;8.608;2022-12-07T10:17:38;11.40;;;6.65;;
4305;SDS011;2166;49.926;8.608;2022-12-07T10:23:00;12.00;;;8.18;;
4305;SDS011;2166;49.926;8.608;2022-12-07T10:25:32;16.27;;;8.50;;
4305;SDS011;2166;49.926;8.608;2022-12-07T10:28:14;11.10;;;8.00;;
4305;SDS011;2166;49.926;8.608;2022-12-07T10:30:47;11.35;;;7.60;;
4305;SDS011;2166;49.926;8.608;2022-12-07T10:33:30;8.90;;;6.55;;
4305;SDS011;2166;49.926;8.608;2022-12-07T10:36:15;12.65;;;6.88;;
4305;SDS011;2166;49.926;8.608;2022-12-07T10:38:46;9.65;;;7.63;;
4305;SDS011;2166;49.926;8.608;2022-12-07T10:41:17;10.10;;;6.40;;
4305;SDS011;2166;49.926;8.608;2022-12-07T10:43:48;10.75;;;6.47;;
4305;SDS011;2166;49.926;8.608;2022-12-07T10:49:35;12.13;;;6.53;;
4305;SDS011;2166;49.926;8.608;2022-12-07T10:52:24;11.43;;;6.78;;
4305;SDS011;2166;49.926;8.608;2022-12-07T10:55:08;9.63;;;6.97;;
4305;SDS011;2166;49.926;8.608;2022-12-07T10:57:54;9.07;;;6.60;;
4305;SDS011;2166;49.926;8.608;2022-12-07T11:00:34;13.13;;;7.55;;
4305;SDS011;2166;49.926;8.608;2022-12-07T11:06:02;13.35;;;6.90;;
4305;SDS011;2166;49.926;8.608;2022-12-07T11:08:43;10.57;;;6.78;;
4305;SDS011;2166;49.926;8.608;2022-12-07T11:11:22;13.45;;;7.30;;
4305;SDS011;2166;49.926;8.608;2022-12-07T11:14:01;11.13;;;6.68;;
4305;SDS011;2166;49.926;8.608;2022-12-07T11:19:34;13.55;;;6.00;;
4305;SDS011;2166;49.926;8.608;2022-12-07T11:22:19;11.88;;;6.45;;
4305;SDS011;2166;49.926;8.608;2022-12-07T11:24:56;13.73;;;6.97;;
4305;SDS011;2166;49.926;8.608;2022-12-07T11:27:32;10.82;;;7.07;;
4305;SDS011;2166;49.926;8.608;2022-12-07T11:30:13;13.13;;;6.57;;
4305;SDS011;2166;49.926;8.608;2022-12-07T11:32:56;9.05;;;6.35;;
4305;SDS011;2166;49.926;8.608;2022-12-07T11:35:36;10.95;;;6.90;;
4305;SDS011;2166;49.926;8.608;2022-12-07T11:38:14;10.50;;;6.82;;
4305;SDS011;2166;49.926;8.608;2022-12-07T11:40:55;9.32;;;6.20;;
4305;SDS011;2166;49.926;8.608;2022-12-07T11:43:43;8.55;;;5.00;;
4305;SDS011;2166;49.926;8.608;2022-12-07T11:46:22;10.52;;;6.07;;
4305;SDS011;2166;49.926;8.608;2022-12-07T11:51:35;9.18;;;5.03;;
4305;SDS011;2166;49.926;8.608;2022-12-07T11:54:10;7.15;;;4.85;;
4305;SDS011;2166;49.926;8.608;2022-12-07T11:56:43;7.75;;;5.50;;
4305;SDS011;2166;49.926;8.608;2022-12-07T11:59:13;12.00;;;5.93;;
4305;SDS011;2166;49.926;8.608;2022-12-07T12:01:58;6.57;;;4.03;;
4305;SDS011;2166;49.926;8.608;2022-12-07T12:04:42;7.28;;;4.03;;
4305;SDS011;2166;49.926;8.608;2022-12-07T12:07:21;8.43;;;4.07;;
4305;SDS011;2166;49.926;8.608;2022-12-07T12:10:16;6.53;;;4.22;;
4305;SDS011;2166;49.926;8.608;2022-12-07T12:12:53;7.72;;;4.43;;
4305;SDS011;2166;49.926;8.608;2022-12-07T12:16:10;7.45;;;4.20;;
4305;SDS011;2166;49.926;8.608;2022-12-07T12:18:52;6.13;;;4.57;;
4305;SDS011;2166;49.926;8.608;2022-12-07T12:21:31;9.55;;;4.85;;
4305;SDS011;2166;49.926;8.608;2022-12-07T12:24:00;16.92;;;10.10;;
4305;SDS011;2166;49.926;8.608;2022-12-07T12:26:33;7.15;;;2.65;;
4305;SDS011;2166;49.926;8.608;2022-12-07T12:29:05;9.38;;;2.45;;
4305;SDS011;2166;49.926;8.608;2022-12-07T12:31:47;4.60;;;2.50;;
4305;SDS011;2166;49.926;8.608;2022-12-07T12:34:39;10.48;;;2.45;;
4305;SDS011;2166;49.926;8.608;2022-12-07T12:46:37;6.85;;;2.05;;
4305;SDS011;2166;49.926;8.608;2022-12-07T12:49:30;6.90;;;2.05;;
4305;SDS011;2166;49.926;8.608;2022-12-07T12:55:17;8.80;;;1.77;;
4305;SDS011;2166;49.926;8.608;2022-12-07T12:58:25;5.47;;;1.77;;
4305;SDS011;2166;49.926;8.608;2022-12-07T13:10:20;2.92;;;1.60;;
4305;SDS011;2166;49.926;8.608;2022-12-07T13:12:56;4.43;;;1.35;;
4305;SDS011;2166;49.926;8.608;2022-12-07T13:15:31;6.05;;;1.73;;
4305;SDS011;2166;49.926;8.608;2022-12-07T13:18:01;5.95;;;2.13;;
4305;SDS011;2166;49.926;8.608;2022-12-07T13:20:43;7.20;;;1.75;;
4305;SDS011;2166;49.926;8.608;2022-12-07T13:23:20;4.90;;;1.33;;
4305;SDS011;2166;49.926;8.608;2022-12-07T13:28:44;4.57;;;1.40;;
4305;SDS011;2166;49.926;8.608;2022-12-07T13:31:30;4.40;;;1.17;;
4305;SDS011;2166;49.926;8.608;2022-12-07T13:34:01;4.95;;;1.40;;
4305;SDS011;2166;49.926;8.608;2022-12-07T13:36:32;2.50;;;1.10;;
4305;SDS011;2166;49.926;8.608;2022-12-07T13:39:15;3.97;;;1.40;;
4305;SDS011;2166;49.926;8.608;2022-12-07T13:41:50;4.30;;;1.02;;
4305;SDS011;2166;49.926;8.608;2022-12-07T13:44:19;2.95;;;1.25;;
4305;SDS011;2166;49.926;8.608;2022-12-07T13:46:56;4.40;;;0.90;;
4305;SDS011;2166;49.926;8.608;2022-12-07T13:49:33;2.20;;;1.02;;
4305;SDS011;2166;49.926;8.608;2022-12-07T13:52:12;5.05;;;1.52;;
4305;SDS011;2166;49.926;8.608;2022-12-07T13:54:43;4.30;;;1.65;;
4305;SDS011;2166;49.926;8.608;2022-12-07T13:57:12;4.65;;;2.03;;
4305;SDS011;2166;49.926;8.608;2022-12-07T13:59:41;8.75;;;1.95;;
4305;SDS011;2166;49.926;8.608;2022-12-07T14:02:16;5.78;;;1.85;;
4305;SDS011;2166;49.926;8.608;2022-12-07T14:04:48;4.57;;;1.90;;
4305;SDS011;2166;49.926;8.608;2022-12-07T14:07:20;5.80;;;2.40;;
4305;SDS011;2166;49.926;8.608;2022-12-07T14:09:55;3.55;;;1.25;;
4305;SDS011;2166;49.926;8.608;2022-12-07T14:12:25;3.63;;;1.10;;
4305;SDS011;2166;49.926;8.608;2022-12-07T14:14:56;5.00;;;1.42;;
4305;SDS011;2166;49.926;8.608;2022-12-07T14:17:26;8.52;;;1.75;;
4305;SDS011;2166;49.926;8.608;2022-12-07T14:19:56;4.57;;;1.50;;
4305;SDS011;2166;49.926;8.608;2022-12-07T14:22:35;9.88;;;3.20;;
4305;SDS011;2166;49.926;8.608;2022-12-07T14:27:54;7.10;;;1.60;;
4305;SDS011;2166;49.926;8.608;2022-12-07T14:30:25;5.25;;;1.63;;
4305;SDS011;2166;49.926;8.608;2022-12-07T14:32:57;3.72;;;1.55;;
4305;SDS011;2166;49.926;8.608;2022-12-07T14:35:26;4.68;;;1.58;;
4305;SDS011;2166;49.926;8.608;2022-12-07T14:37:57;3.95;;;1.40;;
4305;SDS011;2166;49.926;8.608;2022-12-07T14:40:25;5.47;;;1.70;;
4305;SDS011;2166;49.926;8.608;2022-12-07T14:42:55;4.40;;;1.35;;
4305;SDS011;2166;49.926;8.608;2022-12-07T14:45:27;6.40;;;1.60;;
4305;SDS011;2166;49.926;8.608;2022-12-07T14:47:56;11.30;;;2.13;;
4305;SDS011;2166;49.926;8.608;2022-12-07T14:50:45;9.70;;;3.17;;
4305;SDS011;2166;49.926;8.608;2022-12-07T14:53:39;6.30;;;3.08;;
4305;SDS011;2166;49.926;8.608;2022-12-07T14:56:14;9.60;;;3.33;;
4305;SDS011;2166;49.926;8.608;2022-12-07T14:58:42;11.80;;;3.45;;
4305;SDS011;2166;49.926;8.608;2022-12-07T15:01:10;8.73;;;2.55;;
4305;SDS011;2166;49.926;8.608;2022-12-07T15:03:38;8.88;;;3.15;;
4305;SDS011;2166;49.926;8.608;2022-12-07T15:06:07;2.33;;;1.60;;
4305;SDS011;2166;49.926;8.608;2022-12-07T15:08:42;6.78;;;2.50;;
4305;SDS011;2166;49.926;8.608;2022-12-07T15:11:11;5.28;;;2.28;;
4305;SDS011;2166;49.926;8.608;2022-12-07T15:13:40;5.90;;;2.35;;
4305;SDS011;2166;49.926;8.608;2022-12-07T15:19:14;9.63;;;4.50;;
4305;SDS011;2166;49.926;8.608;2022-12-07T15:21:54;9.88;;;3.80;;
4305;SDS011;2166;49.926;8.608;2022-12-07T15:24:24;6.53;;;3.63;;
4305;SDS011;2166;49.926;8.608;2022-12-07T15:26:52;7.15;;;2.50;;
4305;SDS011;2166;49.926;8.608;2022-12-07T15:29:22;5.63;;;2.20;;
4305;SDS011;2166;49.926;8.608;2022-12-07T15:31:50;10.20;;;3.10;;
4305;SDS011;2166;49.926;8.608;2022-12-07T15:34:23;5.70;;;3.08;;
4305;SDS011;2166;49.926;8.608;2022-12-07T15:36:52;9.85;;;2.67;;
4305;SDS011;2166;49.926;8.608;2022-12-07T15:39:23;9.30;;;3.58;;
4305;SDS011;2166;49.926;8.608;2022-12-07T15:41:51;7.57;;;3.45;;
4305;SDS011;2166;49.926;8.608;2022-12-07T15:44:20;7.38;;;3.22;;
4305;SDS011;2166;49.926;8.608;2022-12-07T15:49:33;8.82;;;5.22;;
4305;SDS011;2166;49.926;8.608;2022-12-07T15:52:02;6.20;;;3.72;;
4305;SDS011;2166;49.926;8.608;2022-12-07T15:54:31;7.40;;;3.28;;
4305;SDS011;2166;49.926;8.608;2022-12-07T15:57:00;7.47;;;3.10;;
4305;SDS011;2166;49.926;8.608;2022-12-07T15:59:28;5.93;;;3.00;;
4305;SDS011;2166;49.926;8.608;2022-12-07T16:01:57;9.48;;;3.63;;
4305;SDS011;2166;49.926;8.608;2022-12-07T16:04:26;8.48;;;3.65;;
4305;SDS011;2166;49.926;8.608;2022-12-07T16:06:55;8.00;;;3.53;;
4305;SDS011;2166;49.926;8.608;2022-12-07T16:09:23;8.30;;;3.85;;
4305;SDS011;2166;49.926;8.608;2022-12-07T16:11:54;7.97;;;3.85;;
4305;SDS011;2166;49.926;8.608;2022-12-07T16:14:22;9.55;;;4.40;;
4305;SDS011;2166;49.926;8.608;2022-12-07T16:16:51;8.95;;;3.63;;
4305;SDS011;2166;49.926;8.608;2022-12-07T16:19:19;5.85;;;2.83;;